Prairie City, OR

1:44 PM PST on December 22, 2014 (GMT -0800)
La Grande-Union County | Change Station
CLOSE
Current Station
Airport
Location: La Grande,
Elevation: 2717 ft
Nearby Weather Stations

Elev 2717 ft 45.29 °N, 118.01 °W | Updated 9 minutes ago

Mostly Cloudy
Mostly Cloudy
45 °F
Feels Like 38 °F
N
13
Wind Variable Wind from NNW
Gusts 18 mph

Today
High -- | Low -- °F
--% Chance of Precip.
Yesterday
High -- | Low -- °F
Precip. -- in
7:28 AM 4:18 PM
New Moon, 1% visible
Pressure 30.24 in
Visibility 10.0 miles
Clouds Mostly Cloudy 6000 ft
Mostly Cloudy 7000 ft
Windchill 38 °F
Dew Point 27 °F
Humidity 49%
Rainfall 0.14 in
Snow Depth Not available.
UV 1 out of 12
Pollen .60 out of 12
Air Quality Not available.
Flu Activity Not available.
METAR KLGD 222135Z AUTO 33011G16KT 10SM BKN060 BKN070 07/M03 A3024 RMK AO1

More Conditions Fewer Conditions

Pressure 30.24 in
Visibility 10.0 miles
Clouds Mostly Cloudy 6000 ft
Mostly Cloudy 7000 ft
Windchill 38 °F
Dew Point 27 °F
Humidity 49%
Rainfall 0.14 in
Snow Depth Not available.
UV 1 out of 12
Pollen .60 out of 12
Air Quality Not available.
Flu Activity Not available.
METAR KLGD 222135Z AUTO 33011G16KT 10SM BKN060 BKN070 07/M03 A3024 RMK AO1

More Conditions Fewer Conditions

10-Day Weather Forecast

Almanac

Astronomy

Dec. 22, 2014 Rise Set
Actual Time
Civil Twilight
Nautical Twilight
Astronomical Twilight
Moon
Length of Visible Light
Length of Day
Tomorrow will be .
, % of the Moon is Illuminated

Today's Extremes

State Highs State Lows

Community

WunderPhotos

Upload Photos

1,779,688 photos uploaded!

WunderBlogs® & News

Nearby

Air Quality

  Air Quality AQ Index Pollutant
Not available.

Snow Depth

Station Depth Elevation

Earthquake Activity

City Distance Mag. Time & Date
Minimum magnitude displayed is 2.5.

Coastal Water Temperatures

Place Temperature

Nearby Weather Stations